createdAt,value
2022-11-26T00:02:18.270Z,7.90
2022-11-26T00:05:06.213Z,7.90
2022-11-26T00:07:58.219Z,7.90
2022-11-26T00:10:46.453Z,7.90
2022-11-26T00:13:33.926Z,7.90
2022-11-26T00:16:21.911Z,7.90
2022-11-26T00:19:11.264Z,7.80
2022-11-26T00:21:58.942Z,7.80
2022-11-26T00:24:46.574Z,7.80
2022-11-26T00:27:34.066Z,7.80
2022-11-26T00:30:25.694Z,7.80
2022-11-26T00:33:13.438Z,7.80
2022-11-26T00:36:05.685Z,7.80
2022-11-26T00:38:57.848Z,7.80
2022-11-26T00:41:50.166Z,7.80
2022-11-26T00:44:38.206Z,7.70
2022-11-26T00:47:25.798Z,7.70
2022-11-26T00:50:17.436Z,7.70
2022-11-26T00:53:08.415Z,7.70
2022-11-26T00:55:55.938Z,7.60
2022-11-26T00:58:43.877Z,7.60
2022-11-26T01:01:33.212Z,7.60
2022-11-26T01:04:21.287Z,7.50
2022-11-26T01:07:12.232Z,7.50
2022-11-26T01:10:01.741Z,7.40
2022-11-26T01:12:49.299Z,7.40
2022-11-26T01:15:36.590Z,7.40
2022-11-26T01:18:25.221Z,7.30
2022-11-26T01:21:13.240Z,7.40
2022-11-26T01:24:00.833Z,7.40
2022-11-26T01:26:50.128Z,7.30
2022-11-26T01:29:38.399Z,7.30
2022-11-26T01:32:29.413Z,7.30
2022-11-26T01:35:17.994Z,7.40
2022-11-26T01:38:06.856Z,7.40
2022-11-26T01:41:12.663Z,7.30
2022-11-26T01:44:02.375Z,7.40
2022-11-26T01:46:51.213Z,7.30
2022-11-26T01:49:40.914Z,7.40
2022-11-26T01:52:28.852Z,7.30
2022-11-26T01:55:19.180Z,7.40
2022-11-26T01:58:11.874Z,7.40
2022-11-26T02:01:01.832Z,7.40
2022-11-26T02:04:00.095Z,7.40
2022-11-26T02:06:51.035Z,7.40
2022-11-26T02:09:38.848Z,7.40
2022-11-26T02:12:26.704Z,7.40
2022-11-26T02:15:14.986Z,7.40
2022-11-26T02:18:07.813Z,7.40
2022-11-26T02:21:02.827Z,7.40
2022-11-26T02:24:16.649Z,7.40
2022-11-26T02:27:30.496Z,7.40
2022-11-26T02:30:20.211Z,7.40
2022-11-26T02:33:13.418Z,7.40
2022-11-26T02:36:08.842Z,7.40
2022-11-26T02:38:56.634Z,7.40
2022-11-26T02:41:46.450Z,7.40
2022-11-26T02:44:40.778Z,7.40
2022-11-26T02:47:31.197Z,7.40
2022-11-26T02:50:23.888Z,7.40
2022-11-26T02:53:12.822Z,7.50
2022-11-26T02:56:06.929Z,7.50
2022-11-26T02:58:55.879Z,7.50
2022-11-26T03:01:52.588Z,7.50
2022-11-26T03:04:45.613Z,7.50
2022-11-26T03:07:35.837Z,7.50
2022-11-26T03:10:28.255Z,7.50
2022-11-26T03:13:16.106Z,7.50
2022-11-26T03:16:04.800Z,7.50
2022-11-26T03:18:52.742Z,7.50
2022-11-26T03:21:41.991Z,7.50
2022-11-26T03:24:30.008Z,7.50
2022-11-26T03:27:17.850Z,7.50
2022-11-26T03:30:06.615Z,7.50
2022-11-26T03:32:54.502Z,7.50
2022-11-26T03:35:42.474Z,7.50
2022-11-26T03:38:31.559Z,7.50
2022-11-26T03:41:18.916Z,7.50
2022-11-26T03:44:06.708Z,7.50
2022-11-26T03:46:54.367Z,7.50
2022-11-26T03:49:41.979Z,7.50
2022-11-26T03:52:29.525Z,7.40
2022-11-26T03:55:19.097Z,7.50
2022-11-26T03:58:06.697Z,7.50
2022-11-26T04:00:54.219Z,7.50
2022-11-26T04:03:42.436Z,7.50
2022-11-26T04:06:30.970Z,7.50
2022-11-26T04:09:19.086Z,7.50
2022-11-26T04:12:09.586Z,7.50
2022-11-26T04:14:57.433Z,7.50
2022-11-26T04:17:45.309Z,7.50
2022-11-26T04:20:32.859Z,7.50
2022-11-26T04:23:20.603Z,7.50
2022-11-26T04:26:08.321Z,7.50
2022-11-26T04:28:57.738Z,7.50
2022-11-26T04:31:46.164Z,7.50
2022-11-26T04:34:34.288Z,7.50
2022-11-26T04:37:21.911Z,7.50
2022-11-26T04:40:10.789Z,7.40
2022-11-26T04:42:58.281Z,7.50
2022-11-26T04:45:47.306Z,7.40
2022-11-26T04:48:35.030Z,7.40
2022-11-26T04:51:23.280Z,7.40
2022-11-26T04:54:13.219Z,7.50
2022-11-26T04:57:01.071Z,7.40
2022-11-26T04:59:49.123Z,7.40
2022-11-26T05:02:38.769Z,7.40
2022-11-26T05:05:26.282Z,7.40
2022-11-26T05:08:14.133Z,7.50
2022-11-26T05:11:03.412Z,7.50
2022-11-26T05:13:51.051Z,7.50
2022-11-26T05:16:38.787Z,7.50
2022-11-26T05:19:27.722Z,7.50
2022-11-26T05:22:15.534Z,7.50
2022-11-26T05:25:03.076Z,7.50
2022-11-26T05:27:50.655Z,7.50
2022-11-26T05:30:38.825Z,7.50
2022-11-26T05:33:26.081Z,7.50
2022-11-26T05:36:15.018Z,7.50
2022-11-26T05:39:02.378Z,7.50
2022-11-26T05:41:50.298Z,7.50
2022-11-26T05:44:38.452Z,7.50
2022-11-26T05:47:26.789Z,7.50
2022-11-26T05:50:15.126Z,7.50
2022-11-26T05:53:04.528Z,7.50
2022-11-26T05:55:52.492Z,7.50
2022-11-26T05:58:40.027Z,7.50
2022-11-26T06:01:27.906Z,7.50
2022-11-26T06:04:15.157Z,7.50
2022-11-26T06:07:02.858Z,7.60
2022-11-26T06:09:52.360Z,7.50
2022-11-26T06:12:40.338Z,7.50
2022-11-26T06:15:27.866Z,7.60
2022-11-26T06:18:15.209Z,7.60
2022-11-26T06:21:03.041Z,7.60
2022-11-26T06:23:56.113Z,7.60
2022-11-26T06:26:48.189Z,7.60
2022-11-26T06:29:36.143Z,7.60
2022-11-26T06:32:23.753Z,7.60
2022-11-26T06:35:11.631Z,7.50
2022-11-26T06:37:59.904Z,7.50
2022-11-26T06:40:47.782Z,7.50
2022-11-26T06:43:38.162Z,7.50
2022-11-26T06:46:26.299Z,7.50
2022-11-26T06:49:14.039Z,7.50
2022-11-26T06:52:01.943Z,7.50
2022-11-26T06:54:51.151Z,7.50
2022-11-26T06:57:39.314Z,7.50
2022-11-26T07:00:28.624Z,7.50
2022-11-26T07:03:18.604Z,7.50
2022-11-26T07:06:22.355Z,7.50
2022-11-26T07:09:12.968Z,7.50
2022-11-26T07:12:00.951Z,7.50
2022-11-26T07:14:48.351Z,7.50
2022-11-26T07:17:37.605Z,7.50
2022-11-26T07:20:25.935Z,7.50
2022-11-26T07:23:14.038Z,7.50
2022-11-26T07:26:01.854Z,7.50
2022-11-26T07:28:50.392Z,7.50
2022-11-26T07:31:38.474Z,7.50
2022-11-26T07:34:27.576Z,7.50
2022-11-26T07:37:15.192Z,7.50
2022-11-26T07:40:02.755Z,7.50
2022-11-26T07:42:53.366Z,7.50
2022-11-26T07:45:45.338Z,7.50
2022-11-26T07:48:34.216Z,7.60
2022-11-26T07:51:26.762Z,7.60
2022-11-26T07:54:14.620Z,7.60
2022-11-26T07:57:02.378Z,7.60
2022-11-26T07:59:50.385Z,7.60
2022-11-26T08:02:37.940Z,7.60
2022-11-26T08:05:26.049Z,7.70
2022-11-26T08:08:14.976Z,7.70
2022-11-26T08:11:03.025Z,7.70
2022-11-26T08:13:53.631Z,7.70
2022-11-26T08:16:41.484Z,7.70
2022-11-26T08:19:29.261Z,7.70
2022-11-26T08:22:16.902Z,7.70
2022-11-26T08:25:06.577Z,7.70
2022-11-26T08:27:54.292Z,7.80
2022-11-26T08:30:41.870Z,7.80
2022-11-26T08:33:29.601Z,7.80
2022-11-26T08:36:17.903Z,7.80
2022-11-26T08:39:06.043Z,7.80
2022-11-26T08:41:56.089Z,7.80
2022-11-26T08:44:43.855Z,7.80
2022-11-26T08:47:31.623Z,7.80
2022-11-26T08:50:21.210Z,7.80
2022-11-26T08:53:08.660Z,7.80
2022-11-26T08:56:02.494Z,7.90
2022-11-26T08:58:52.345Z,7.90
2022-11-26T09:01:40.697Z,7.90
2022-11-26T09:04:31.524Z,7.90
2022-11-26T09:07:19.170Z,8.00
2022-11-26T09:10:08.235Z,8.00
2022-11-26T09:12:56.047Z,8.10
2022-11-26T09:15:45.425Z,8.20
2022-11-26T09:18:33.224Z,8.20
2022-11-26T09:21:21.423Z,8.30
2022-11-26T09:24:09.500Z,8.30
2022-11-26T09:26:56.990Z,8.40
2022-11-26T09:29:44.911Z,8.40
2022-11-26T09:32:34.832Z,8.40
2022-11-26T09:35:22.659Z,8.50
2022-11-26T09:38:10.543Z,8.50
2022-11-26T09:41:08.010Z,8.60
2022-11-26T09:44:08.259Z,8.70
2022-11-26T09:47:13.688Z,8.70
2022-11-26T09:50:14.656Z,8.70
2022-11-26T09:53:06.822Z,8.70
2022-11-26T09:55:57.619Z,8.70
2022-11-26T09:58:52.524Z,8.80
2022-11-26T10:01:42.471Z,8.80
2022-11-26T10:04:38.111Z,8.80
2022-11-26T10:07:44.959Z,8.90
2022-11-26T10:10:44.575Z,8.90
2022-11-26T10:13:43.268Z,8.90
2022-11-26T10:16:39.967Z,9.00
2022-11-26T10:19:36.031Z,9.00
2022-11-26T10:22:30.203Z,9.00
2022-11-26T10:25:22.651Z,9.00
2022-11-26T10:28:20.293Z,9.00
2022-11-26T10:31:16.986Z,9.00
2022-11-26T10:34:12.312Z,9.10
2022-11-26T10:37:00.030Z,9.00
2022-11-26T10:39:46.845Z,9.10
2022-11-26T10:42:44.450Z,9.10
2022-11-26T10:45:41.286Z,9.10
2022-11-26T10:48:30.673Z,9.10
2022-11-26T10:51:28.927Z,9.10
2022-11-26T10:54:27.207Z,9.10
2022-11-26T10:57:18.938Z,9.10
2022-11-26T11:00:27.057Z,9.10
2022-11-26T11:03:32.871Z,9.10
2022-11-26T11:06:38.348Z,9.10
2022-11-26T11:09:31.500Z,9.00
2022-11-26T11:12:22.712Z,9.00
2022-11-26T11:15:27.547Z,8.90
2022-11-26T11:18:20.615Z,8.90
2022-11-26T11:21:07.981Z,8.90
2022-11-26T11:24:09.593Z,9.00
2022-11-26T11:26:59.131Z,9.00
2022-11-26T11:29:47.753Z,9.10
2022-11-26T11:32:38.370Z,9.10
2022-11-26T11:35:27.591Z,9.10
2022-11-26T11:38:24.015Z,9.20
2022-11-26T11:41:26.600Z,9.20
2022-11-26T11:44:19.204Z,9.30
2022-11-26T11:47:20.644Z,9.30
2022-11-26T11:50:19.204Z,9.30
2022-11-26T11:53:21.876Z,9.30
2022-11-26T11:56:22.031Z,9.40
2022-11-26T11:59:48.302Z,9.30
2022-11-26T12:02:52.071Z,9.40
2022-11-26T12:05:50.985Z,9.40
2022-11-26T12:08:50.143Z,9.40
2022-11-26T12:11:48.200Z,9.40
2022-11-26T12:14:40.872Z,9.40
2022-11-26T12:17:37.406Z,9.40
2022-11-26T12:20:32.916Z,9.40
2022-11-26T12:23:29.551Z,9.40
2022-11-26T12:26:23.345Z,9.50
2022-11-26T12:29:15.395Z,9.50
2022-11-26T12:32:10.554Z,9.50
2022-11-26T12:35:02.256Z,9.50
2022-11-26T12:37:52.933Z,9.50
2022-11-26T12:40:49.501Z,9.60
2022-11-26T12:43:49.454Z,9.60
2022-11-26T12:46:42.828Z,9.60
2022-11-26T12:49:36.562Z,9.60
2022-11-26T12:52:29.857Z,9.70
2022-11-26T12:55:21.781Z,9.60
2022-11-26T12:58:17.535Z,9.60
2022-11-26T13:01:04.929Z,9.70
2022-11-26T13:04:08.367Z,9.70
2022-11-26T13:07:15.168Z,9.80
2022-11-26T13:10:18.008Z,9.80
2022-11-26T13:13:15.424Z,9.80
2022-11-26T13:16:09.245Z,9.90
2022-11-26T13:19:05.299Z,9.80
2022-11-26T13:22:18.774Z,9.80
2022-11-26T13:25:29.090Z,9.90
2022-11-26T13:28:28.473Z,9.90
2022-11-26T13:31:33.859Z,9.90
2022-11-26T13:34:44.446Z,9.90
2022-11-26T13:37:34.054Z,9.90
2022-11-26T13:40:46.133Z,9.90
2022-11-26T13:44:00.527Z,9.80
2022-11-26T13:46:47.217Z,9.90
2022-11-26T13:49:39.405Z,9.90
2022-11-26T13:52:31.628Z,9.90
2022-11-26T13:55:23.439Z,9.90
2022-11-26T13:58:18.468Z,10.00
2022-11-26T14:01:30.010Z,10.00
2022-11-26T14:04:51.948Z,10.00
2022-11-26T14:07:39.610Z,10.00
2022-11-26T14:10:43.875Z,9.90
2022-11-26T14:13:30.742Z,9.90
2022-11-26T14:16:17.622Z,9.90
2022-11-26T14:19:05.972Z,9.90
2022-11-26T14:22:03.849Z,9.90
2022-11-26T14:24:57.621Z,9.80
2022-11-26T14:27:52.915Z,9.80
2022-11-26T14:30:41.022Z,9.70
2022-11-26T14:33:30.519Z,9.70
2022-11-26T14:36:24.546Z,9.70
2022-11-26T14:39:15.133Z,9.70
2022-11-26T14:42:05.961Z,9.60
2022-11-26T14:45:03.462Z,9.60
2022-11-26T14:47:53.520Z,9.60
2022-11-26T14:50:41.083Z,9.60
2022-11-26T14:53:32.578Z,9.60
2022-11-26T14:56:22.565Z,9.50
2022-11-26T14:59:16.542Z,9.50
2022-11-26T15:02:03.575Z,9.40
2022-11-26T15:05:00.278Z,9.30
2022-11-26T15:07:48.436Z,9.20
2022-11-26T15:10:39.593Z,9.10
2022-11-26T15:13:29.951Z,9.00
2022-11-26T15:16:31.360Z,8.90
2022-11-26T15:19:18.369Z,8.90
2022-11-26T15:22:08.209Z,8.70
2022-11-26T15:24:55.855Z,8.70
2022-11-26T15:27:59.012Z,8.50
2022-11-26T15:30:56.003Z,8.50
2022-11-26T15:33:44.639Z,8.40
2022-11-26T15:36:31.623Z,8.20
2022-11-26T15:39:27.078Z,8.20
2022-11-26T15:42:28.495Z,8.10
2022-11-26T15:45:19.300Z,8.00
2022-11-26T15:48:08.949Z,7.90
2022-11-26T15:50:58.492Z,7.80
2022-11-26T15:53:49.032Z,7.70
2022-11-26T15:56:38.571Z,7.60
2022-11-26T15:59:28.611Z,7.60
2022-11-26T16:02:21.764Z,7.50
2022-11-26T16:05:25.106Z,7.40
2022-11-26T16:08:25.813Z,7.30
2022-11-26T16:11:23.826Z,7.20
2022-11-26T16:14:30.313Z,7.10
2022-11-26T16:17:21.288Z,7.00
2022-11-26T16:20:19.374Z,6.90
2022-11-26T16:23:06.562Z,6.90
2022-11-26T16:26:10.185Z,6.80
2022-11-26T16:28:57.332Z,6.80
2022-11-26T16:31:44.647Z,6.60
2022-11-26T16:34:33.524Z,6.60
2022-11-26T16:37:23.186Z,6.50
2022-11-26T16:40:16.298Z,6.50
2022-11-26T16:43:03.452Z,6.40
2022-11-26T16:45:55.286Z,6.20
2022-11-26T16:48:43.637Z,6.20
2022-11-26T16:51:32.482Z,6.20
2022-11-26T16:54:19.679Z,6.10
2022-11-26T16:57:07.545Z,6.10
2022-11-26T16:59:58.959Z,6.00
2022-11-26T17:02:47.556Z,6.00
2022-11-26T17:05:34.516Z,5.90
2022-11-26T17:08:23.895Z,5.90
2022-11-26T17:11:14.814Z,5.90
2022-11-26T17:14:02.039Z,5.80
2022-11-26T17:16:49.088Z,5.80
2022-11-26T17:19:35.929Z,5.70
2022-11-26T17:22:22.939Z,5.70
2022-11-26T17:25:12.101Z,5.60
2022-11-26T17:27:59.010Z,5.60
2022-11-26T17:30:46.747Z,5.60
2022-11-26T17:33:34.046Z,5.50
2022-11-26T17:36:22.691Z,5.50
2022-11-26T17:39:12.233Z,5.40
2022-11-26T17:42:00.713Z,5.40
2022-11-26T17:44:48.040Z,5.30
2022-11-26T17:47:35.189Z,5.30
2022-11-26T17:50:25.255Z,5.30
2022-11-26T17:53:12.556Z,5.30
2022-11-26T17:55:59.796Z,5.20
2022-11-26T17:58:48.783Z,5.20
2022-11-26T18:01:36.056Z,5.20
2022-11-26T18:04:23.201Z,5.10
2022-11-26T18:07:14.110Z,5.10
2022-11-26T18:10:01.051Z,5.10
2022-11-26T18:12:48.792Z,5.00
2022-11-26T18:15:43.391Z,5.00
2022-11-26T18:18:30.261Z,5.00
2022-11-26T18:21:17.633Z,4.90
2022-11-26T18:24:05.715Z,4.90
2022-11-26T18:26:56.375Z,4.90
2022-11-26T18:29:43.595Z,4.90
2022-11-26T18:32:32.170Z,4.80
2022-11-26T18:35:19.511Z,4.80
2022-11-26T18:38:09.605Z,4.70
2022-11-26T18:41:01.108Z,4.70
2022-11-26T18:43:48.557Z,4.70
2022-11-26T18:46:35.597Z,4.70
2022-11-26T18:49:23.967Z,4.60
2022-11-26T18:52:11.310Z,4.60
2022-11-26T18:54:58.367Z,4.60
2022-11-26T18:57:45.726Z,4.60
2022-11-26T19:00:33.016Z,4.60
2022-11-26T19:03:20.018Z,4.60
2022-11-26T19:06:09.024Z,4.60
2022-11-26T19:08:59.197Z,4.60
2022-11-26T19:11:46.586Z,4.60
2022-11-26T19:14:33.828Z,4.60
2022-11-26T19:17:21.270Z,4.60
2022-11-26T19:20:09.478Z,4.60
2022-11-26T19:22:57.866Z,4.60
2022-11-26T19:25:45.843Z,4.60
2022-11-26T19:28:33.549Z,4.60
2022-11-26T19:31:25.158Z,4.60
2022-11-26T19:34:16.570Z,4.60
2022-11-26T19:37:03.785Z,4.60
2022-11-26T19:39:52.589Z,4.50
2022-11-26T19:42:39.987Z,4.50
2022-11-26T19:45:27.025Z,4.40
2022-11-26T19:48:14.459Z,4.40
2022-11-26T19:51:01.712Z,4.40
2022-11-26T19:53:49.658Z,4.30
2022-11-26T19:56:38.449Z,4.30
2022-11-26T19:59:25.642Z,4.20
2022-11-26T20:02:13.035Z,4.20
2022-11-26T20:05:00.009Z,4.20
2022-11-26T20:07:47.057Z,4.10
2022-11-26T20:10:34.797Z,4.10
2022-11-26T20:13:23.382Z,4.00
2022-11-26T20:16:12.638Z,4.00
2022-11-26T20:19:00.724Z,4.00
2022-11-26T20:21:51.000Z,3.90
2022-11-26T20:24:37.901Z,3.90
2022-11-26T20:27:24.922Z,3.90
2022-11-26T20:30:13.652Z,3.90
2022-11-26T20:33:01.010Z,3.80
2022-11-26T20:35:48.354Z,3.80
2022-11-26T20:38:35.640Z,3.80
2022-11-26T20:41:24.428Z,3.80
2022-11-26T20:44:12.720Z,3.70
2022-11-26T20:47:01.019Z,3.70
2022-11-26T20:49:48.346Z,3.60
2022-11-26T20:52:35.822Z,3.60
2022-11-26T20:55:23.783Z,3.60
2022-11-26T20:58:10.759Z,3.60
2022-11-26T21:00:58.576Z,3.60
2022-11-26T21:03:48.413Z,3.60
2022-11-26T21:06:36.862Z,3.50
2022-11-26T21:09:24.072Z,3.50
2022-11-26T21:12:11.410Z,3.40
2022-11-26T21:14:59.096Z,3.40
2022-11-26T21:17:46.484Z,3.40
2022-11-26T21:20:36.311Z,3.40
2022-11-26T21:23:23.543Z,3.40
2022-11-26T21:26:12.904Z,3.40
2022-11-26T21:29:01.996Z,3.40
2022-11-26T21:31:49.506Z,3.40
2022-11-26T21:34:36.682Z,3.40
2022-11-26T21:37:24.953Z,3.40
2022-11-26T21:40:13.101Z,3.40
2022-11-26T21:43:00.603Z,3.30
2022-11-26T21:45:47.845Z,3.30
2022-11-26T21:48:36.262Z,3.30
2022-11-26T21:51:25.442Z,3.20
2022-11-26T21:54:14.082Z,3.30
2022-11-26T21:57:00.992Z,3.20
2022-11-26T21:59:48.072Z,3.10
2022-11-26T22:02:35.262Z,3.10
2022-11-26T22:05:22.663Z,3.10
2022-11-26T22:08:09.634Z,3.10
2022-11-26T22:10:58.506Z,3.10
2022-11-26T22:13:46.623Z,3.10
2022-11-26T22:16:34.917Z,3.10
2022-11-26T22:19:22.672Z,3.10
2022-11-26T22:22:10.494Z,3.10
2022-11-26T22:24:58.342Z,3.10
2022-11-26T22:27:47.845Z,3.10
2022-11-26T22:30:35.416Z,3.10
2022-11-26T22:33:23.315Z,3.10
2022-11-26T22:36:11.263Z,3.00
2022-11-26T22:38:59.904Z,3.00
2022-11-26T22:41:49.349Z,3.00
2022-11-26T22:44:38.335Z,3.00
2022-11-26T22:47:26.520Z,3.00
2022-11-26T22:50:14.096Z,3.00
2022-11-26T22:53:01.720Z,3.00
2022-11-26T22:55:54.265Z,3.00
2022-11-26T22:58:42.005Z,3.00
2022-11-26T23:01:33.646Z,2.90
2022-11-26T23:04:21.112Z,2.90
2022-11-26T23:07:09.229Z,2.90
2022-11-26T23:09:56.830Z,2.90
2022-11-26T23:12:44.450Z,2.80
2022-11-26T23:15:32.166Z,2.80
2022-11-26T23:18:21.297Z,2.80
2022-11-26T23:21:11.247Z,2.70
2022-11-26T23:23:59.865Z,2.70
2022-11-26T23:26:47.712Z,2.70
2022-11-26T23:29:35.654Z,2.60
2022-11-26T23:32:23.965Z,2.60
2022-11-26T23:35:15.229Z,2.60
2022-11-26T23:38:02.921Z,2.60
2022-11-26T23:40:55.389Z,2.50
2022-11-26T23:43:43.456Z,2.50
2022-11-26T23:46:33.222Z,2.50
2022-11-26T23:49:23.294Z,2.50
2022-11-26T23:52:12.936Z,2.40
2022-11-26T23:55:01.004Z,2.50
2022-11-26T23:57:48.561Z,2.40
